Time;durP1;ratioP1;P1;durP2;ratioP2;P2;SDS_P1;SDS_P2;PMS_P1;PMS_P2;Temp;Humidity;BMP_temperature;BMP_pressure;BME280_temperature;BME280_humidity;BME280_pressure;Samples;Min_cycle;Max_cycle;Signal;HPM_P1;HPM_P2
2022/01/18 00:00:55;;;;;;;96.63;7.10;;;9.90;99.90;;;;;;4775306;30;20120;-85
2022/01/18 00:03:22;;;;;;;89.65;7.35;;;8.00;99.90;;;;;;4774794;30;20083;-85
2022/01/18 00:05:50;;;;;;;100.25;7.80;;;8.60;99.90;;;;;;4790915;30;20059;-85
2022/01/18 00:08:17;;;;;;;83.47;8.15;;;8.20;99.90;;;;;;4774810;30;20055;-85
2022/01/18 00:10:44;;;;;;;79.50;7.90;;;7.20;99.90;;;;;;4774988;30;20130;-85
2022/01/18 00:13:35;;;;;;;90.68;8.93;;;7.20;99.90;;;;;;4774938;30;20056;-85
2022/01/18 00:18:33;;;;;;;80.13;8.70;;;8.50;99.90;;;;;;4789612;30;20479;-85
2022/01/18 00:21:16;;;;;;;76.47;7.88;;;10.30;99.90;;;;;;4790310;30;20125;-86
2022/01/18 00:23:42;;;;;;;78.93;8.38;;;8.30;99.90;;;;;;4789665;30;20051;-85
2022/01/18 00:26:09;;;;;;;89.45;8.20;;;8.30;99.90;;;;;;4789840;30;20073;-85
2022/01/18 00:28:37;;;;;;;99.10;9.27;;;8.60;99.90;;;;;;4789416;30;20137;-85
2022/01/18 00:33:43;;;;;;;99.88;7.47;;;9.00;99.90;;;;;;4790990;30;20130;-85
2022/01/18 00:36:23;;;;;;;62.00;7.00;;;10.70;99.90;;;;;;4789412;30;20108;-85
2022/01/18 00:38:48;;;;;;;74.10;8.32;;;8.40;99.90;;;;;;4789533;30;20518;-85
2022/01/18 00:41:17;;;;;;;83.35;7.88;;;10.40;99.90;;;;;;4789307;30;20055;-85
2022/01/18 00:43:43;;;;;;;79.10;7.80;;;9.70;99.90;;;;;;4789453;30;20062;-85
2022/01/18 00:46:11;;;;;;;83.20;8.30;;;9.00;99.90;;;;;;4790091;30;20062;-85
2022/01/18 00:48:37;;;;;;;81.72;8.07;;;8.10;99.90;;;;;;4788778;29;20054;-86
2022/01/18 00:51:05;;;;;;;87.43;8.75;;;9.60;99.90;;;;;;4789567;30;20058;-85
2022/01/18 00:53:33;;;;;;;99.40;7.88;;;9.90;99.90;;;;;;4789974;30;20043;-85
2022/01/18 00:56:19;;;;;;;107.82;9.18;;;7.60;99.90;;;;;;4789049;30;20111;-85
2022/01/18 00:58:47;;;;;;;94.75;8.15;;;8.90;99.90;;;;;;4789205;30;20059;-85
2022/01/18 01:01:14;;;;;;;84.55;7.80;;;8.60;99.90;;;;;;4774045;30;20074;-84
2022/01/18 01:03:40;;;;;;;94.82;7.70;;;6.60;99.90;;;;;;4773445;30;20055;-85
2022/01/18 01:06:07;;;;;;;94.43;8.05;;;10.10;99.90;;;;;;4789698;30;20051;-85
2022/01/18 01:08:34;;;;;;;93.68;8.00;;;10.90;99.90;;;;;;4773771;30;20105;-85
2022/01/18 01:11:02;;;;;;;82.32;8.00;;;9.20;99.90;;;;;;4774110;30;20388;-85
2022/01/18 01:13:30;;;;;;;83.80;7.07;;;10.10;99.90;;;;;;4773982;30;20508;-85
2022/01/18 01:34:52;;;;;;;102.68;7.80;;;9.50;99.90;;;;;;4788552;30;20055;-84
2022/01/18 01:42:57;;;;;;;87.45;6.90;;;7.00;99.90;;;;;;4788777;30;20070;-85
2022/01/18 01:45:26;;;;;;;91.28;6.45;;;7.80;99.90;;;;;;4788197;30;20055;-85
2022/01/18 01:47:53;;;;;;;118.38;7.28;;;8.10;99.90;;;;;;4773433;30;20098;-85
2022/01/18 01:50:21;;;;;;;92.03;7.65;;;6.30;99.90;;;;;;4773309;30;20459;-84
2022/01/18 01:52:49;;;;;;;71.13;6.13;;;10.00;99.90;;;;;;4773766;30;20445;-84
2022/01/18 01:55:15;;;;;;;87.93;6.85;;;10.20;99.90;;;;;;4788024;30;20094;-84
2022/01/18 01:57:41;;;;;;;73.82;6.90;;;7.20;99.90;;;;;;4789118;30;20500;-84
2022/01/18 02:00:10;;;;;;;92.93;7.60;;;7.50;99.90;;;;;;4787623;29;20091;-85
2022/01/18 02:02:36;;;;;;;104.28;7.63;;;7.60;99.90;;;;;;4788173;30;20090;-84
2022/01/18 02:05:03;;;;;;;82.70;6.28;;;10.00;99.90;;;;;;4786612;30;20102;-85
2022/01/18 02:07:29;;;;;;;115.10;8.48;;;7.90;99.90;;;;;;4788333;30;20394;-85
2022/01/18 02:09:55;;;;;;;94.63;6.78;;;9.00;99.90;;;;;;4772799;30;20120;-85
2022/01/18 02:12:21;;;;;;;119.53;8.57;;;6.60;99.90;;;;;;4788461;30;20104;-85
2022/01/18 02:14:53;;;;;;;110.97;8.13;;;8.50;99.90;;;;;;4772873;30;20047;-85
2022/01/18 02:22:49;;;;;;;;;;;6.30;99.90;;;;;;4789526;30;20059;-85
2022/01/18 02:25:15;;;;;;;128.37;8.17;;;4.90;99.90;;;;;;4787606;30;20280;-84
2022/01/18 02:27:40;;;;;;;90.43;7.30;;;8.70;99.90;;;;;;4787624;30;20047;-84
2022/01/18 02:30:07;;;;;;;135.00;7.95;;;8.00;99.90;;;;;;4787509;30;20100;-85
2022/01/18 02:32:32;;;;;;;120.47;7.68;;;6.10;99.90;;;;;;4787477;30;20059;-85
2022/01/18 02:35:00;;;;;;;140.65;7.28;;;10.00;99.90;;;;;;4787624;30;20043;-85
2022/01/18 02:37:26;;;;;;;126.05;8.27;;;9.90;99.90;;;;;;4787206;30;20055;-85
2022/01/18 02:39:52;;;;;;;106.28;8.13;;;6.60;99.90;;;;;;4786974;30;20463;-86
2022/01/18 02:42:24;;;;;;;109.97;8.52;;;6.10;99.90;;;;;;4787266;30;20134;-85
2022/01/18 02:44:51;;;;;;;108.53;6.57;;;8.80;99.90;;;;;;4787245;30;20130;-85
2022/01/18 02:47:21;;;;;;;122.55;8.73;;;8.50;99.90;;;;;;4787240;30;20058;-85
2022/01/18 02:49:48;;;;;;;123.03;8.05;;;8.30;99.90;;;;;;4772376;30;20516;-85
2022/01/18 02:52:15;;;;;;;110.03;7.00;;;9.40;99.90;;;;;;4772254;30;20047;-85
2022/01/18 02:54:41;;;;;;;104.40;9.10;;;8.00;99.90;;;;;;4772258;30;20055;-85
2022/01/18 02:57:12;;;;;;;123.32;7.47;;;7.60;99.90;;;;;;4772154;30;20047;-85
2022/01/18 02:59:49;;;;;;;142.80;8.30;;;9.50;99.90;;;;;;4787133;30;20121;-84
2022/01/18 03:05:08;;;;;;;128.75;8.38;;;10.10;99.90;;;;;;4785716;30;20074;-84
2022/01/18 03:07:34;;;;;;;142.15;11.23;;;6.10;99.90;;;;;;4786840;30;20102;-84
2022/01/18 03:10:00;;;;;;;121.30;8.95;;;9.50;99.90;;;;;;4787890;29;20110;-84
2022/01/18 03:12:26;;;;;;;133.73;10.10;;;6.70;99.90;;;;;;4788410;29;20414;-84
2022/01/18 03:14:52;;;;;;;158.65;9.88;;;9.60;99.90;;;;;;4775929;30;20047;-84
2022/01/18 03:17:18;;;;;;;198.02;12.18;;;8.00;99.90;;;;;;4792070;30;20406;-84
2022/01/18 03:19:44;;;;;;;105.72;8.52;;;8.30;99.90;;;;;;4790868;30;20062;-85
2022/01/18 03:22:10;;;;;;;175.45;11.18;;;9.40;99.90;;;;;;4790653;30;20043;-84
2022/01/18 03:24:58;;;;;;;146.57;9.95;;;8.10;99.90;;;;;;4790573;30;20051;-85
2022/01/18 03:30:09;;;;;;;165.55;10.35;;;8.20;99.90;;;;;;4790679;30;20112;-85
2022/01/18 03:32:36;;;;;;;133.93;9.68;;;6.50;99.90;;;;;;4790690;29;20485;-84
2022/01/18 03:35:03;;;;;;;122.22;8.55;;;10.30;99.90;;;;;;4790414;30;20497;-84
2022/01/18 03:37:29;;;;;;;140.20;10.00;;;6.40;99.90;;;;;;4790711;30;20483;-85
2022/01/18 03:39:55;;;;;;;148.77;10.52;;;7.20;99.90;;;;;;4790277;30;20044;-85
2022/01/18 03:45:05;;;;;;;154.00;9.32;;;9.80;99.90;;;;;;4790833;30;20055;-85
2022/01/18 03:47:38;;;;;;;180.23;10.25;;;7.10;99.90;;;;;;4775028;30;20054;-85
2022/01/18 03:50:06;;;;;;;184.15;10.85;;;7.40;99.90;;;;;;4789946;30;20130;-85
2022/01/18 03:52:32;;;;;;;162.02;9.70;;;8.10;99.90;;;;;;4790050;30;20054;-85
2022/01/18 03:54:57;;;;;;;153.82;11.90;;;7.30;99.90;;;;;;4790059;30;20051;-85
2022/01/18 03:57:23;;;;;;;180.63;11.63;;;10.60;99.90;;;;;;4790247;30;20491;-85
2022/01/18 03:59:49;;;;;;;241.98;12.40;;;9.30;99.90;;;;;;4790405;30;20059;-85
2022/01/18 04:02:16;;;;;;;201.38;11.60;;;10.10;99.90;;;;;;4789942;30;20087;-85
2022/01/18 04:04:42;;;;;;;190.32;10.15;;;7.30;99.90;;;;;;4788522;30;20063;-85
2022/01/18 04:07:09;;;;;;;213.65;11.73;;;10.40;99.90;;;;;;4789829;30;20124;-85
2022/01/18 04:09:35;;;;;;;173.80;9.85;;;9.00;99.90;;;;;;4775204;30;20143;-84
2022/01/18 04:12:01;;;;;;;150.75;9.85;;;8.00;99.90;;;;;;4775148;30;20374;-85
2022/01/18 04:14:27;;;;;;;227.63;10.85;;;9.90;99.90;;;;;;4775046;30;20191;-85
2022/01/18 04:27:45;;;;;;;143.82;6.72;;;7.80;99.90;;;;;;4789583;30;20055;-85
2022/01/18 04:30:11;;;;;;;176.55;8.50;;;7.60;99.90;;;;;;4789440;30;20062;-85
2022/01/18 04:38:14;;;;;;;154.90;6.55;;;5.80;99.90;;;;;;4771063;30;20047;-87
2022/01/18 04:40:44;;;;;;;142.10;5.93;;;7.60;99.90;;;;;;4771679;30;20063;-87
2022/01/18 04:43:18;;;;;;;204.00;7.18;;;7.70;99.90;;;;;;4757028;30;20210;-87
2022/01/18 04:48:35;;;;;;;187.45;5.30;;;7.50;99.90;;;;;;4771622;30;20055;-87
2022/01/18 04:51:02;;;;;;;166.98;4.53;;;7.70;99.90;;;;;;4756654;30;20055;-86
2022/01/18 04:53:31;;;;;;;308.30;7.00;;;5.90;99.90;;;;;;4771481;30;20412;-87
2022/01/18 04:56:01;;;;;;;189.13;4.53;;;5.80;99.90;;;;;;4756808;30;20077;-87
2022/01/18 04:58:28;;;;;;;184.00;4.20;;;8.60;99.90;;;;;;4771670;30;20404;-87
2022/01/18 05:00:58;;;;;;;233.05;5.30;;;7.30;99.90;;;;;;4756283;30;20143;-86
2022/01/18 05:03:24;;;;;;;284.00;7.70;;;7.50;99.90;;;;;;4756580;30;20139;-86
2022/01/18 05:05:52;;;;;;;179.65;4.80;;;6.50;99.90;;;;;;4771091;30;20126;-87
2022/01/18 05:08:18;;;;;;;228.98;6.57;;;7.10;99.90;;;;;;4771526;30;20434;-87
2022/01/18 05:10:50;;;;;;;191.55;5.72;;;6.50;99.90;;;;;;4771373;30;20055;-87
2022/01/18 05:13:33;;;;;;;209.98;7.43;;;8.90;99.90;;;;;;4786850;30;20090;-86
2022/01/18 05:16:23;;;;;;;144.65;5.30;;;6.60;99.90;;;;;;4756627;30;20469;-86
2022/01/18 05:19:12;;;;;;;112.72;4.78;;;6.80;99.90;;;;;;4770790;30;20052;-86
2022/01/18 05:24:13;;;;;;;132.57;5.47;;;8.50;99.90;;;;;;4772108;30;20142;-87
2022/01/18 05:26:39;;;;;;;137.80;5.82;;;7.10;99.90;;;;;;4772117;30;20147;-87
2022/01/18 05:29:04;;;;;;;107.07;4.15;;;5.30;99.90;;;;;;4756160;30;20058;-88
2022/01/18 05:31:30;;;;;;;116.28;3.45;;;6.90;99.90;;;;;;4771126;30;20052;-87
2022/01/18 05:33:56;;;;;;;107.75;3.88;;;8.50;99.90;;;;;;4771686;30;20106;-87
2022/01/18 05:36:22;;;;;;;154.27;5.65;;;6.50;99.90;;;;;;4754664;30;20066;-86
2022/01/18 05:38:48;;;;;;;132.68;3.90;;;6.50;99.90;;;;;;4770324;30;20063;-87
2022/01/18 05:41:16;;;;;;;119.03;3.40;;;7.40;99.90;;;;;;4771927;30;20055;-86
2022/01/18 05:43:42;;;;;;;145.57;4.28;;;5.00;99.90;;;;;;4755615;30;20087;-87
2022/01/18 05:46:08;;;;;;;101.47;5.03;;;4.70;99.90;;;;;;4755543;30;20459;-87
2022/01/18 05:48:34;;;;;;;202.82;4.38;;;5.70;99.90;;;;;;4770439;30;20055;-87
2022/01/18 05:51:00;;;;;;;136.80;5.53;;;5.80;99.90;;;;;;4770349;30;20604;-87
2022/01/18 05:53:27;;;;;;;171.02;5.15;;;5.20;99.90;;;;;;4770342;30;20051;-87
2022/01/18 05:55:53;;;;;;;90.15;3.55;;;7.30;99.90;;;;;;4770056;30;20079;-87
2022/01/18 05:58:19;;;;;;;90.88;3.63;;;6.80;99.90;;;;;;4769963;30;20075;-86
2022/01/18 06:00:52;;;;;;;98.10;4.07;;;8.40;99.90;;;;;;4755624;30;20090;-87
2022/01/18 06:03:26;;;;;;;120.70;5.00;;;6.10;99.90;;;;;;4770069;30;20047;-87
2022/01/18 06:08:37;;;;;;;134.60;8.48;;;6.80;99.90;;;;;;4770233;30;20056;-86
2022/01/18 06:11:03;;;;;;;132.20;5.88;;;9.00;99.90;;;;;;4769976;30;20122;-86
2022/01/18 06:13:29;;;;;;;76.18;4.43;;;8.80;99.90;;;;;;4770125;30;20048;-86
2022/01/18 06:15:55;;;;;;;99.88;5.38;;;7.30;99.90;;;;;;4769874;30;20047;-86
2022/01/18 06:18:22;;;;;;;70.68;3.90;;;6.40;99.90;;;;;;4769794;30;20048;-87
2022/01/18 06:20:47;;;;;;;74.18;3.65;;;6.60;99.90;;;;;;4769788;30;20055;-87
2022/01/18 06:23:14;;;;;;;161.10;4.30;;;7.80;99.90;;;;;;4769960;30;20062;-86
2022/01/18 06:25:40;;;;;;;507.73;15.27;;;6.10;99.90;;;;;;4769697;30;20066;-86
2022/01/18 06:28:06;;;;;;;162.88;4.68;;;5.40;99.90;;;;;;4769674;30;20164;-86
2022/01/18 06:30:32;;;;;;;73.38;3.60;;;6.20;99.90;;;;;;4769904;30;20063;-86
2022/01/18 06:32:58;;;;;;;78.65;3.92;;;7.10;99.90;;;;;;4769915;30;20044;-86
2022/01/18 06:35:23;;;;;;;96.78;4.88;;;8.30;99.90;;;;;;4769415;30;20489;-86
2022/01/18 06:37:49;;;;;;;107.80;4.38;;;8.20;99.90;;;;;;4770365;30;20143;-85
2022/01/18 06:40:15;;;;;;;30.10;2.95;;;5.70;99.90;;;;;;4769381;30;20052;-87
2022/01/18 06:42:41;;;;;;;93.10;4.15;;;5.30;99.90;;;;;;4769991;30;20091;-86
2022/01/18 06:45:08;;;;;;;65.70;4.10;;;7.60;99.90;;;;;;4769818;30;20086;-87
2022/01/18 06:47:34;;;;;;;47.75;4.10;;;6.90;99.90;;;;;;4769140;30;20082;-86
2022/01/18 06:50:00;;;;;;;114.80;4.63;;;6.60;99.90;;;;;;4770439;30;20452;-86
2022/01/18 06:52:25;;;;;;;121.32;5.47;;;8.60;99.90;;;;;;4769694;30;20504;-87
2022/01/18 06:54:51;;;;;;;35.45;3.00;;;7.00;99.90;;;;;;4769337;30;20043;-86
2022/01/18 06:57:17;;;;;;;90.50;3.78;;;7.30;99.90;;;;;;4769663;30;20126;-86
2022/01/18 06:59:44;;;;;;;96.82;4.28;;;7.10;99.90;;;;;;4769542;30;20144;-87
2022/01/18 07:02:10;;;;;;;93.25;3.95;;;5.70;99.90;;;;;;4754081;30;20138;-87
2022/01/18 07:04:36;;;;;;;149.88;6.35;;;7.20;99.90;;;;;;4754657;30;20071;-87
2022/01/18 07:07:02;;;;;;;136.48;5.43;;;8.60;99.90;;;;;;4769155;30;20047;-87
2022/01/18 07:09:28;;;;;;;217.07;5.57;;;6.50;99.90;;;;;;4770491;30;20144;-86
2022/01/18 07:11:56;;;;;;;135.50;4.30;;;6.60;99.90;;;;;;4755128;30;20130;-87
2022/01/18 07:14:49;;;;;;;68.10;3.22;;;7.60;99.90;;;;;;4754697;30;20047;-86
2022/01/18 07:17:24;;;;;;;68.25;2.92;;;8.40;99.90;;;;;;4768759;30;20083;-88
2022/01/18 07:19:50;;;;;;;68.60;3.53;;;4.60;99.90;;;;;;4769581;30;20047;-86
2022/01/18 07:22:15;;;;;;;49.45;3.08;;;7.10;99.90;;;;;;4768984;30;20500;-88
2022/01/18 07:24:43;;;;;;;88.18;3.50;;;6.90;99.90;;;;;;4768943;30;20477;-86
2022/01/18 07:27:11;;;;;;;72.47;3.20;;;5.70;99.90;;;;;;4754855;30;20366;-83
2022/01/18 07:29:42;;;;;;;130.38;4.43;;;7.60;99.90;;;;;;4769059;30;20058;-87
2022/01/18 07:32:10;;;;;;;67.57;3.30;;;5.70;99.90;;;;;;4768816;30;20078;-88
2022/01/18 07:34:46;;;;;;;38.97;3.35;;;4.30;99.90;;;;;;4768854;30;20090;-86
2022/01/18 07:37:16;;;;;;;58.20;3.50;;;3.90;99.90;;;;;;4751469;30;20059;-85
2022/01/18 07:39:42;;;;;;;48.78;3.60;;;7.40;99.90;;;;;;4753243;30;20051;-84
2022/01/18 07:42:08;;;;;;;21.48;2.83;;;7.60;99.90;;;;;;4768626;30;20158;-84
2022/01/18 07:44:33;;;;;;;82.30;4.72;;;6.30;99.90;;;;;;4754563;30;20476;-85
2022/01/18 07:46:59;;;;;;;163.27;5.13;;;4.70;99.90;;;;;;4768760;30;20083;-84
2022/01/18 07:49:25;;;;;;;100.00;4.70;;;6.00;99.90;;;;;;4768777;30;20051;-84
2022/01/18 07:51:51;;;;;;;103.95;5.43;;;6.20;99.90;;;;;;4754188;30;20085;-84
2022/01/18 07:54:17;;;;;;;170.52;5.95;;;5.10;99.90;;;;;;4752941;30;20056;-82
2022/01/18 07:56:44;;;;;;;127.82;4.85;;;8.20;99.90;;;;;;4768588;30;20047;-84
2022/01/18 07:59:11;;;;;;;43.05;3.13;;;8.00;99.90;;;;;;4769274;30;20051;-83
2022/01/18 08:01:38;;;;;;;99.45;3.70;;;6.20;99.90;;;;;;4772159;30;20059;-84
2022/01/18 08:04:04;;;;;;;49.65;3.53;;;6.60;99.90;;;;;;4757866;30;20480;-83
2022/01/18 08:06:30;;;;;;;30.48;2.47;;;6.70;99.90;;;;;;4772133;30;20083;-85
2022/01/18 08:08:56;;;;;;;10.23;2.03;;;4.90;99.90;;;;;;4756518;30;20044;-84
2022/01/18 08:11:22;;;;;;;55.47;2.80;;;7.40;99.90;;;;;;4766309;30;20081;-84
2022/01/18 08:13:49;;;;;;;37.55;2.55;;;4.80;99.90;;;;;;4768693;30;20052;-86
2022/01/18 08:18:54;;;;;;;12.43;1.55;;;5.70;99.90;;;;;;4766104;30;20079;-84
2022/01/18 08:21:20;;;;;;;21.38;2.30;;;7.30;99.90;;;;;;4739252;30;20068;-83
2022/01/18 08:23:46;;;;;;;55.88;3.45;;;4.00;99.90;;;;;;4744583;30;20504;-84
2022/01/18 08:26:12;;;;;;;14.35;2.17;;;4.40;99.90;;;;;;4771777;30;20051;-83
2022/01/18 08:28:38;;;;;;;16.10;2.22;;;5.30;99.90;;;;;;4771119;30;20563;-84
2022/01/18 08:31:04;;;;;;;40.55;2.30;;;3.80;99.90;;;;;;4756599;30;20170;-84
2022/01/18 08:33:32;;;;;;;12.93;1.60;;;6.30;99.90;;;;;;4772059;30;20523;-84
2022/01/18 08:35:59;;;;;;;17.65;1.63;;;5.50;99.90;;;;;;4768101;30;20068;-84
2022/01/18 08:38:26;;;;;;;32.22;2.92;;;5.30;99.90;;;;;;4744900;30;20078;-84
2022/01/18 08:40:54;;;;;;;57.42;2.90;;;5.60;99.90;;;;;;4771284;30;20052;-84
2022/01/18 08:43:20;;;;;;;36.30;3.05;;;5.30;99.90;;;;;;4771430;30;20051;-84
2022/01/18 08:45:46;;;;;;;15.45;3.50;;;6.70;99.90;;;;;;4742247;30;20052;-84
2022/01/18 08:48:12;;;;;;;22.17;4.20;;;5.10;99.90;;;;;;4754519;30;20044;-84
2022/01/18 08:50:37;;;;;;;50.85;4.88;;;5.70;99.90;;;;;;4756548;30;20055;-85
2022/01/18 08:53:03;;;;;;;215.70;7.80;;;6.40;99.90;;;;;;4756112;30;20044;-86
2022/01/18 08:55:29;;;;;;;31.13;3.53;;;4.40;99.90;;;;;;4756473;30;20085;-83
2022/01/18 08:57:55;;;;;;;14.20;2.55;;;5.30;99.90;;;;;;4786067;30;20056;-86
2022/01/18 09:00:21;;;;;;;16.45;3.75;;;4.60;99.90;;;;;;4771284;30;20108;-84
2022/01/18 09:02:48;;;;;;;30.85;3.70;;;4.40;99.90;;;;;;4756294;30;20052;-85
2022/01/18 09:05:16;;;;;;;39.92;2.90;;;3.60;99.90;;;;;;4770760;30;20066;-89
2022/01/18 09:07:42;;;;;;;19.13;2.28;;;3.00;99.90;;;;;;4771400;30;20044;-87
2022/01/18 09:10:11;;;;;;;22.35;2.80;;;5.80;99.90;;;;;;4755925;30;20097;-82
2022/01/18 09:12:42;;;;;;;26.63;2.05;;;6.20;99.90;;;;;;4802121;29;20131;-86
2022/01/18 09:15:10;;;;;;;7.70;2.33;;;3.80;99.90;;;;;;4756613;30;20123;-83
2022/01/18 09:17:39;;;;;;;5.25;1.60;;;5.60;99.90;;;;;;4770703;30;20097;-87
2022/01/18 09:20:07;;;;;;;77.38;4.30;;;6.00;99.90;;;;;;4770674;30;20573;-88
2022/01/18 09:22:38;;;;;;;12.98;1.70;;;3.20;99.90;;;;;;4743186;30;20052;-82
2022/01/18 09:25:06;;;;;;;16.85;1.90;;;5.80;99.90;;;;;;4756990;30;20052;-84
2022/01/18 09:27:35;;;;;;;10.60;2.17;;;3.90;99.90;;;;;;4751046;30;20470;-85
2022/01/18 09:30:01;;;;;;;15.80;2.20;;;6.70;99.90;;;;;;4770741;30;20047;-85
2022/01/18 09:32:26;;;;;;;21.85;2.22;;;5.50;99.90;;;;;;4769022;30;20421;-88
2022/01/18 09:34:53;;;;;;;77.53;3.95;;;7.10;99.90;;;;;;4770531;30;20051;-84
2022/01/18 09:37:19;;;;;;;121.05;4.72;;;7.40;99.90;;;;;;4766653;30;20547;-82
2022/01/18 09:39:45;;;;;;;69.22;3.78;;;5.90;99.90;;;;;;4755197;30;20060;-85
2022/01/18 09:42:12;;;;;;;61.15;5.13;;;7.30;99.90;;;;;;4770596;30;20125;-83
2022/01/18 09:44:39;;;;;;;60.80;4.90;;;6.70;99.90;;;;;;4783028;30;20060;-86
2022/01/18 09:47:05;;;;;;;78.50;3.88;;;5.00;99.90;;;;;;4769869;30;20134;-86
2022/01/18 09:49:33;;;;;;;71.90;4.65;;;6.00;99.90;;;;;;4785238;30;20055;-87
2022/01/18 09:51:59;;;;;;;46.38;2.92;;;7.70;99.90;;;;;;4771133;30;20139;-91
2022/01/18 09:54:25;;;;;;;84.88;3.58;;;4.30;99.90;;;;;;4765518;30;20542;-81
2022/01/18 09:56:51;;;;;;;76.85;4.57;;;6.90;99.90;;;;;;4766704;30;20040;-87
2022/01/18 09:59:17;;;;;;;48.80;3.75;;;6.70;99.90;;;;;;4770252;30;20130;-88
2022/01/18 10:01:43;;;;;;;127.45;4.72;;;4.60;99.90;;;;;;4769226;30;20047;-82
2022/01/18 10:04:18;;;;;;;45.38;2.72;;;6.40;99.90;;;;;;4771009;30;20107;-83
2022/01/18 10:06:46;;;;;;;46.85;2.63;;;7.60;99.90;;;;;;4769145;30;20058;-86
2022/01/18 10:09:13;;;;;;;131.95;5.95;;;8.20;99.90;;;;;;4769597;30;20051;-82
2022/01/18 10:12:02;;;;;;;39.88;3.13;;;6.50;99.90;;;;;;4743397;30;20059;-83
2022/01/18 10:14:30;;;;;;;101.78;5.68;;;4.70;99.90;;;;;;4751859;30;20074;-86
2022/01/18 10:16:56;;;;;;;79.10;4.03;;;3.80;99.90;;;;;;4770054;30;20055;-85
2022/01/18 10:19:32;;;;;;;323.65;10.55;;;5.70;99.90;;;;;;4752935;30;20484;-85
2022/01/18 10:22:15;;;;;;;4.60;1.40;;;6.40;99.90;;;;;;4761990;30;20139;-85
2022/01/18 10:24:42;;;;;;;42.25;3.83;;;6.30;99.90;;;;;;4767391;30;20060;-87
2022/01/18 10:27:08;;;;;;;37.33;3.15;;;5.70;99.90;;;;;;4761503;30;20047;-85
2022/01/18 10:29:37;;;;;;;242.18;7.60;;;6.70;99.90;;;;;;4768131;30;20047;-86
2022/01/18 10:32:24;;;;;;;103.95;4.50;;;4.20;99.90;;;;;;4766646;30;20072;-81
2022/01/18 10:37:19;;;;;;;23.58;3.08;;;4.40;99.90;;;;;;4768684;30;20120;-82
2022/01/18 10:39:50;;;;;;;46.78;3.55;;;4.80;99.90;;;;;;4768606;30;20185;-82
2022/01/18 10:42:18;;;;;;;50.60;3.28;;;4.50;99.90;;;;;;4768466;30;20055;-81
2022/01/18 10:44:46;;;;;;;83.78;5.88;;;6.30;99.90;;;;;;4765087;30;20387;-82
2022/01/18 10:47:12;;;;;;;72.03;4.18;;;6.90;99.90;;;;;;4764158;30;20044;-85
2022/01/18 10:49:43;;;;;;;24.45;2.63;;;6.90;99.90;;;;;;4762312;30;20058;-81
2022/01/18 10:52:15;;;;;;;195.13;7.43;;;7.50;99.90;;;;;;4753458;30;20143;-81
2022/01/18 10:54:47;;;;;;;20.65;3.83;;;6.10;99.90;;;;;;4769731;30;20096;-86
2022/01/18 10:57:18;;;;;;;84.95;6.00;;;7.00;99.90;;;;;;4754792;30;20127;-82
2022/01/18 10:59:44;;;;;;;29.10;3.78;;;6.70;99.90;;;;;;4767331;30;20052;-85
2022/01/18 11:02:19;;;;;;;87.97;5.68;;;4.10;99.90;;;;;;4763810;30;20041;-86
2022/01/18 11:04:48;;;;;;;19.23;3.83;;;5.70;99.90;;;;;;4748350;30;20079;-83
2022/01/18 11:07:17;;;;;;;88.90;7.10;;;7.10;99.90;;;;;;4741605;30;21415;-82
2022/01/18 11:09:43;;;;;;;19.77;3.45;;;6.40;99.90;;;;;;4762697;30;20056;-81
2022/01/18 11:12:10;;;;;;;17.05;2.80;;;6.30;99.90;;;;;;4766807;30;20055;-83
2022/01/18 11:14:39;;;;;;;35.95;3.78;;;4.50;99.90;;;;;;4751116;30;20095;-85
2022/01/18 11:17:08;;;;;;;35.58;4.00;;;6.30;99.90;;;;;;4754889;30;20404;-82
2022/01/18 11:19:37;;;;;;;43.45;4.47;;;7.10;99.90;;;;;;4751398;30;20505;-85
2022/01/18 11:22:11;;;;;;;48.30;4.28;;;4.60;99.90;;;;;;4764260;30;20108;-86
2022/01/18 11:24:43;;;;;;;37.55;3.70;;;4.00;99.90;;;;;;4776959;30;20130;-82
2022/01/18 11:27:13;;;;;;;132.35;6.70;;;7.00;99.90;;;;;;4748431;30;20135;-83
2022/01/18 11:29:42;;;;;;;36.03;4.32;;;6.10;99.90;;;;;;4751165;30;20131;-85
2022/01/18 11:32:11;;;;;;;26.73;3.85;;;8.90;99.90;;;;;;4756934;30;20382;-84
2022/01/18 11:34:54;;;;;;;63.00;5.78;;;6.60;99.90;;;;;;4770920;30;21768;-83
2022/01/18 11:37:32;;;;;;;16.52;3.35;;;4.80;99.90;;;;;;4768473;30;20481;-83
2022/01/18 11:40:03;;;;;;;45.47;3.17;;;6.60;99.90;;;;;;4768090;30;20056;-83
2022/01/18 11:42:40;;;;;;;81.97;5.50;;;7.10;99.90;;;;;;4771787;30;20051;-83
2022/01/18 11:45:24;;;;;;;13.13;3.22;;;4.20;99.90;;;;;;4771940;30;20048;-83
2022/01/18 11:48:00;;;;;;;22.48;3.58;;;6.60;99.90;;;;;;4762605;30;20051;-83
2022/01/18 11:50:28;;;;;;;22.90;3.53;;;4.60;99.90;;;;;;4763433;30;20524;-83
2022/01/18 11:53:22;;;;;;;35.42;4.93;;;6.40;99.90;;;;;;4754240;30;20056;-83
2022/01/18 11:55:47;;;;;;;60.17;5.38;;;5.70;99.90;;;;;;4765783;30;20059;-83
2022/01/18 11:58:13;;;;;;;27.58;4.88;;;7.40;99.90;;;;;;4770615;30;20044;-83
2022/01/18 12:00:51;;;;;;;60.65;7.15;;;4.70;99.90;;;;;;4769111;30;20044;-83
2022/01/18 12:03:22;;;;;;;66.15;6.93;;;7.40;99.90;;;;;;4753172;30;20048;-84
2022/01/18 12:05:49;;;;;;;16.15;4.05;;;6.20;99.90;;;;;;4764868;30;20058;-83
2022/01/18 12:08:32;;;;;;;67.50;6.95;;;4.50;99.90;;;;;;4756998;30;20066;-83
2022/01/18 12:11:01;;;;;;;14.45;3.78;;;6.00;99.90;;;;;;4761192;30;20059;-83
2022/01/18 12:13:31;;;;;;;12.70;3.85;;;7.70;99.90;;;;;;4771427;30;20047;-83
2022/01/18 12:15:59;;;;;;;113.10;9.10;;;4.90;99.90;;;;;;4770318;30;20054;-82
2022/01/18 12:18:29;;;;;;;10.32;4.47;;;4.20;99.90;;;;;;4770178;30;20048;-85
2022/01/18 12:21:03;;;;;;;16.15;4.40;;;7.20;99.90;;;;;;4757399;30;20047;-85
2022/01/18 12:23:32;;;;;;;61.42;6.60;;;6.90;99.90;;;;;;4769652;30;20083;-84
2022/01/18 12:26:14;;;;;;;27.42;5.18;;;4.20;99.90;;;;;;4761120;30;20084;-86
2022/01/18 12:34:29;;;;;;;18.60;6.25;;;4.40;99.90;;;;;;4770654;30;20141;-84
2022/01/18 12:36:56;;;;;;;15.73;5.30;;;4.50;99.90;;;;;;4769534;30;20071;-84
2022/01/18 12:39:23;;;;;;;13.80;5.32;;;4.50;99.90;;;;;;4770555;30;20056;-84
2022/01/18 12:41:54;;;;;;;28.52;6.82;;;8.20;99.90;;;;;;4771207;30;20047;-84
2022/01/18 12:44:21;;;;;;;18.48;6.35;;;4.50;99.90;;;;;;4746684;30;20047;-83
2022/01/18 12:46:52;;;;;;;18.65;6.93;;;3.90;99.90;;;;;;4752156;30;20068;-83
2022/01/18 12:49:19;;;;;;;22.92;7.50;;;6.40;99.90;;;;;;4770411;30;20283;-84
2022/01/18 12:51:44;;;;;;;26.27;7.03;;;5.00;99.90;;;;;;4773956;30;20055;-84
2022/01/18 12:54:10;;;;;;;62.58;9.02;;;5.20;99.90;;;;;;4768461;30;20052;-84
2022/01/18 12:56:36;;;;;;;23.27;6.50;;;3.90;99.90;;;;;;4767956;30;20047;-83
2022/01/18 12:59:04;;;;;;;17.90;5.28;;;6.30;99.90;;;;;;4767904;30;20051;-83
2022/01/18 13:01:31;;;;;;;46.53;5.63;;;5.30;99.90;;;;;;4767193;30;20087;-83
2022/01/18 13:03:57;;;;;;;58.00;6.97;;;5.70;99.90;;;;;;4768142;30;20059;-83
2022/01/18 13:06:25;;;;;;;33.63;6.55;;;3.50;99.90;;;;;;4773214;30;20044;-83
2022/01/18 13:08:57;;;;;;;19.88;6.22;;;5.60;99.90;;;;;;4762152;30;20043;-84
2022/01/18 13:11:24;;;;;;;24.25;5.88;;;6.10;99.90;;;;;;4771600;30;20121;-84
2022/01/18 13:13:59;;;;;;;45.10;7.22;;;5.20;99.90;;;;;;4759643;30;20059;-84
2022/01/18 13:24:51;;;;;;;33.15;6.30;;;4.10;99.90;;;;;;4757553;30;20450;-90
2022/01/18 13:27:27;;;;;;;15.82;5.75;;;4.20;99.90;;;;;;4744566;30;20100;-91
2022/01/18 13:30:01;;;;;;;;;;;7.70;99.90;;;;;;4756239;30;20524;-91
2022/01/18 13:32:33;;;;;;;15.73;4.90;;;3.70;99.90;;;;;;4771254;30;20390;-89
2022/01/18 13:35:01;;;;;;;16.95;5.85;;;5.40;99.90;;;;;;4770936;30;20138;-88
2022/01/18 13:37:31;;;;;;;27.85;7.68;;;6.30;99.90;;;;;;4753582;30;20135;-88
2022/01/18 13:39:59;;;;;;;33.55;7.57;;;4.20;99.90;;;;;;4771947;30;20056;-91
2022/01/18 13:42:34;;;;;;;45.65;8.93;;;5.40;99.90;;;;;;4770121;30;20062;-87
2022/01/18 13:45:19;;;;;;;21.40;6.57;;;8.30;99.90;;;;;;4770746;30;20066;-87
2022/01/18 13:47:49;;;;;;;21.63;8.38;;;5.70;99.90;;;;;;4755363;30;20055;-88
2022/01/18 13:50:44;;;;;;;13.57;6.00;;;5.90;99.90;;;;;;4770260;30;20081;-86
2022/01/18 13:53:28;;;;;;;17.88;6.07;;;4.70;99.90;;;;;;4756929;30;20420;-86
2022/01/18 13:56:03;;;;;;;158.27;14.38;;;3.50;99.90;;;;;;4752959;30;20048;-85
2022/01/18 13:58:32;;;;;;;96.28;14.05;;;4.20;99.90;;;;;;4764511;30;20060;-88
2022/01/18 14:01:18;;;;;;;52.90;11.68;;;5.70;99.90;;;;;;4762340;30;20048;-84
2022/01/18 14:03:46;;;;;;;31.67;6.82;;;3.90;99.90;;;;;;4765892;30;20060;-85
2022/01/18 14:06:14;;;;;;;82.25;11.52;;;3.90;99.90;;;;;;4769773;30;20059;-87
2022/01/18 14:08:48;;;;;;;37.90;8.10;;;6.80;99.90;;;;;;4768477;30;20098;-86
2022/01/18 14:11:19;;;;;;;79.43;13.40;;;5.00;99.90;;;;;;4767367;30;20048;-86
2022/01/18 14:13:45;;;;;;;24.90;9.57;;;6.50;99.90;;;;;;4739368;30;20056;-86
2022/01/18 14:16:30;;;;;;;83.93;13.55;;;4.30;99.90;;;;;;4759483;30;20056;-86
2022/01/18 14:19:04;;;;;;;112.00;15.17;;;8.40;99.90;;;;;;4753942;30;20107;-83